createdAt,value
2023-04-14T00:00:55.994Z,98896.88
2023-04-14T00:03:22.601Z,98888.03
2023-04-14T00:05:49.030Z,98897.97
2023-04-14T00:08:15.552Z,98893.84
2023-04-14T00:10:41.954Z,98892.84
2023-04-14T00:13:08.295Z,98887.97
2023-04-14T00:15:34.638Z,98902.44
2023-04-14T00:18:00.980Z,98892.44
2023-04-14T00:20:27.322Z,98897.63
2023-04-14T00:22:53.609Z,98892.28
2023-04-14T00:25:19.950Z,98886.09
2023-04-14T00:27:46.237Z,98896.38
2023-04-14T00:30:15.212Z,98888.97
2023-04-14T00:32:41.669Z,98884.28
2023-04-14T00:35:08.405Z,98902.44
2023-04-14T00:37:34.718Z,98888.69
2023-04-14T00:40:01.180Z,98899.34
2023-04-14T00:42:27.585Z,98897.81
2023-04-14T00:44:53.910Z,98900.69
2023-04-14T00:47:22.836Z,98913.38
2023-04-14T00:49:49.580Z,98912.72
2023-04-14T00:52:15.985Z,98913.63
2023-04-14T00:54:42.374Z,98925.38
2023-04-14T00:57:09.602Z,98930.72
2023-04-14T00:59:36.964Z,98932.53
2023-04-14T01:02:03.463Z,98929.38
2023-04-14T01:04:44.669Z,98932.44
2023-04-14T01:07:16.290Z,98931.75
2023-04-14T01:09:42.767Z,98925.09
2023-04-14T01:12:30.362Z,98922.94
2023-04-14T01:15:11.901Z,98914.06
2023-04-14T01:17:51.638Z,98919.03
2023-04-14T01:20:35.604Z,98926.13
2023-04-14T01:23:06.237Z,98913.88
2023-04-14T01:25:57.593Z,98927.78
2023-04-14T01:28:41.745Z,98921.44
2023-04-14T01:31:23.210Z,98924.81
2023-04-14T01:34:06.267Z,98918.72
2023-04-14T01:36:39.944Z,98912.41
2023-04-14T01:39:09.796Z,98917.94
2023-04-14T01:41:40.994Z,98902.53
2023-04-14T01:44:10.257Z,98917.50
2023-04-14T01:46:37.194Z,98899.69
2023-04-14T01:49:04.855Z,98915.91
2023-04-14T01:51:33.173Z,98922.06
2023-04-14T01:54:02.982Z,98914.13
2023-04-14T01:56:29.736Z,98924.34
2023-04-14T01:58:58.371Z,98923.97
2023-04-14T02:01:27.743Z,98918.53
2023-04-14T02:03:56.494Z,98926.72
2023-04-14T02:06:24.356Z,98918.97
2023-04-14T02:08:51.529Z,98927.47
2023-04-14T02:11:20.116Z,98937.00
2023-04-14T02:13:48.079Z,98935.88
2023-04-14T02:16:15.104Z,98928.63
2023-04-14T02:18:41.753Z,98935.44
2023-04-14T02:21:09.715Z,98940.25
2023-04-14T02:23:37.494Z,98945.72
2023-04-14T02:26:16.021Z,98935.22
2023-04-14T02:29:06.236Z,98951.03
2023-04-14T02:31:35.080Z,98946.03
2023-04-14T02:34:06.040Z,98957.59
2023-04-14T02:36:41.986Z,98955.59
2023-04-14T02:39:22.935Z,98958.28
2023-04-14T02:41:56.899Z,98957.34
2023-04-14T02:44:29.278Z,98970.50
2023-04-14T02:47:06.209Z,98971.88
2023-04-14T02:49:37.996Z,98971.78
2023-04-14T02:52:06.476Z,98966.31
2023-04-14T02:54:38.950Z,98980.28
2023-04-14T02:57:06.243Z,98979.09
2023-04-14T02:59:37.625Z,98984.13
2023-04-14T03:02:09.181Z,98987.84
2023-04-14T03:04:41.709Z,98988.97
2023-04-14T03:07:17.497Z,98993.22
2023-04-14T03:09:45.169Z,98983.16
2023-04-14T03:12:13.945Z,98982.22
2023-04-14T03:14:43.103Z,98985.41
2023-04-14T03:17:11.213Z,98980.97
2023-04-14T03:19:40.660Z,98980.78
2023-04-14T03:22:13.898Z,98973.56
2023-04-14T03:24:41.996Z,98973.63
2023-04-14T03:27:18.903Z,98964.69
2023-04-14T03:29:50.806Z,98961.38
2023-04-14T03:32:19.026Z,98969.38
2023-04-14T03:34:54.010Z,98976.09
2023-04-14T03:37:26.024Z,98974.81
2023-04-14T03:39:52.850Z,98970.88
2023-04-14T03:42:21.294Z,98969.66
2023-04-14T03:44:53.097Z,98962.72
2023-04-14T03:47:23.362Z,98958.06
2023-04-14T03:49:54.346Z,98958.16
2023-04-14T03:52:23.727Z,98957.34
2023-04-14T03:54:54.457Z,98961.47
2023-04-14T03:57:23.071Z,98957.28
2023-04-14T03:59:51.628Z,98958.03
2023-04-14T04:02:22.373Z,98961.31
2023-04-14T04:04:49.980Z,98959.59
2023-04-14T04:07:19.305Z,98969.41
2023-04-14T04:09:47.177Z,98969.25
2023-04-14T04:12:16.272Z,98969.78
2023-04-14T04:14:42.621Z,98962.06
2023-04-14T04:17:13.647Z,98969.56
2023-04-14T04:19:43.355Z,98969.94
2023-04-14T04:22:14.161Z,98975.56
2023-04-14T04:24:42.350Z,98968.38
2023-04-14T04:27:26.556Z,98966.38
2023-04-14T04:29:57.091Z,98973.03
2023-04-14T04:32:24.890Z,98991.22
2023-04-14T04:34:52.916Z,98983.13
2023-04-14T04:37:19.728Z,98994.97
2023-04-14T04:39:48.369Z,98994.09
2023-04-14T04:42:16.406Z,98993.13
2023-04-14T04:44:43.077Z,99004.50
2023-04-14T04:47:10.147Z,99000.50
2023-04-14T04:49:37.307Z,99003.91
2023-04-14T04:52:03.759Z,98992.59
2023-04-14T04:54:30.256Z,98997.72
2023-04-14T04:56:58.529Z,98998.38
2023-04-14T04:59:24.935Z,99003.34
2023-04-14T05:01:51.706Z,98993.41
2023-04-14T05:04:18.203Z,98993.13
2023-04-14T05:06:44.601Z,98990.38
2023-04-14T05:09:11.015Z,98993.78
2023-04-14T05:11:37.416Z,99001.13
2023-04-14T05:14:03.936Z,98995.69
2023-04-14T05:16:31.329Z,98994.69
2023-04-14T05:18:58.073Z,98998.63
2023-04-14T05:21:24.697Z,99000.81
2023-04-14T05:23:51.239Z,98997.34
2023-04-14T05:28:47.099Z,99002.34
2023-04-14T05:31:13.479Z,99006.88
2023-04-14T05:33:39.951Z,98990.47
2023-04-14T05:36:06.727Z,99005.97
2023-04-14T05:38:33.201Z,99004.34
2023-04-14T05:40:59.495Z,99017.28
2023-04-14T05:43:25.936Z,99011.31
2023-04-14T05:45:52.496Z,99013.75
2023-04-14T05:48:18.852Z,99021.88
2023-04-14T05:50:45.357Z,99028.66
2023-04-14T05:53:12.513Z,99019.00
2023-04-14T05:55:41.919Z,99036.06
2023-04-14T05:58:08.301Z,99016.16
2023-04-14T06:00:34.673Z,99017.38
2023-04-14T06:03:01.264Z,99027.31
2023-04-14T06:05:27.774Z,99019.56
2023-04-14T06:07:54.123Z,99010.88
2023-04-14T06:10:20.642Z,99024.41
2023-04-14T06:12:47.015Z,99029.59
2023-04-14T06:15:13.312Z,99022.81
2023-04-14T06:17:39.936Z,99024.94
2023-04-14T06:20:07.281Z,99019.00
2023-04-14T06:22:33.577Z,99019.75
2023-04-14T06:24:59.958Z,99017.53
2023-04-14T06:27:26.345Z,99012.72
2023-04-14T06:29:52.931Z,99010.41
2023-04-14T06:32:19.899Z,99009.25
2023-04-14T06:34:48.840Z,99013.47
2023-04-14T06:37:16.286Z,99011.66
2023-04-14T06:39:42.708Z,98997.09
2023-04-14T06:42:12.898Z,98997.50
2023-04-14T06:44:40.249Z,98992.78
2023-04-14T06:47:07.069Z,98990.47
2023-04-14T06:49:33.374Z,98980.91
2023-04-14T06:51:59.801Z,98984.13
2023-04-14T06:54:27.032Z,98995.75
2023-04-14T06:56:53.326Z,98991.84
2023-04-14T06:59:21.373Z,98992.34
2023-04-14T07:01:47.808Z,98991.91
2023-04-14T07:04:15.294Z,99000.53
2023-04-14T07:06:41.664Z,99000.19
2023-04-14T07:09:07.988Z,98989.53
2023-04-14T07:11:34.313Z,98987.78
2023-04-14T07:14:00.918Z,98989.84
2023-04-14T07:16:27.460Z,98985.88
2023-04-14T07:18:53.786Z,98990.13
2023-04-14T07:21:20.158Z,98988.97
2023-04-14T07:23:46.482Z,98995.59
2023-04-14T07:26:12.830Z,98996.06
2023-04-14T07:28:39.183Z,98993.41
2023-04-14T07:31:09.544Z,99001.22
2023-04-14T07:33:36.181Z,98995.25
2023-04-14T07:36:07.859Z,98994.41
2023-04-14T07:38:34.182Z,98986.44
2023-04-14T07:41:03.857Z,98991.59
2023-04-14T07:43:35.028Z,98979.72
2023-04-14T07:46:05.945Z,98991.97
2023-04-14T07:48:33.584Z,98975.09
2023-04-14T07:50:59.945Z,98971.84
2023-04-14T07:53:26.312Z,98974.72
2023-04-14T07:55:52.719Z,98978.28
2023-04-14T07:58:19.046Z,98987.25
2023-04-14T08:00:45.725Z,98989.25
2023-04-14T08:03:13.442Z,98986.56
2023-04-14T08:05:40.186Z,98989.25
2023-04-14T08:08:06.923Z,98996.28
2023-04-14T08:10:33.205Z,98985.88
2023-04-14T08:13:01.574Z,98974.75
2023-04-14T08:15:29.513Z,98986.81
2023-04-14T08:17:55.892Z,98985.91
2023-04-14T08:20:22.755Z,98979.03
2023-04-14T08:22:49.071Z,98985.28
2023-04-14T08:25:15.520Z,98984.25
2023-04-14T08:27:41.853Z,98977.91
2023-04-14T08:30:10.224Z,98978.81
2023-04-14T08:32:37.735Z,98971.22
2023-04-14T08:35:37.399Z,98972.50
2023-04-14T08:37:50.686Z,98970.88
2023-04-14T08:40:19.226Z,98977.59
2023-04-14T08:42:48.538Z,98971.63
2023-04-14T08:45:14.956Z,98969.13
2023-04-14T08:47:43.404Z,98958.88
2023-04-14T08:50:15.342Z,98956.66
2023-04-14T08:52:42.615Z,98958.19
2023-04-14T08:55:10.967Z,98952.50
2023-04-14T08:57:38.367Z,98953.50
2023-04-14T09:00:05.772Z,98948.63
2023-04-14T09:02:33.581Z,98946.53
2023-04-14T09:05:00.473Z,98953.94
2023-04-14T09:07:28.244Z,98949.88
2023-04-14T09:09:57.334Z,98949.72
2023-04-14T09:12:26.305Z,98940.91
2023-04-14T09:14:54.003Z,98949.75
2023-04-14T09:17:20.419Z,98941.06
2023-04-14T09:20:35.923Z,98947.84
2023-04-14T09:22:34.489Z,98927.75
2023-04-14T09:25:01.089Z,98938.41
2023-04-14T09:27:28.736Z,98929.94
2023-04-14T09:29:57.337Z,98924.72
2023-04-14T09:32:23.814Z,98920.63
2023-04-14T09:34:55.542Z,98923.97
2023-04-14T09:37:26.379Z,98925.16
2023-04-14T09:39:55.306Z,98919.84
2023-04-14T09:42:37.362Z,98916.44
2023-04-14T09:45:05.578Z,98918.56
2023-04-14T09:47:32.759Z,98911.50
2023-04-14T09:50:04.188Z,98912.41
2023-04-14T09:52:44.701Z,98909.41
2023-04-14T09:55:13.812Z,98896.72
2023-04-14T09:57:47.035Z,98904.59
2023-04-14T10:00:16.244Z,98907.75
2023-04-14T10:02:55.626Z,98903.00
2023-04-14T10:05:26.970Z,98898.44
2023-04-14T10:07:53.462Z,98901.63
2023-04-14T10:10:19.835Z,98894.88
2023-04-14T10:12:46.849Z,98890.91
2023-04-14T10:15:14.751Z,98886.56
2023-04-14T10:17:42.328Z,98883.56
2023-04-14T10:20:10.214Z,98874.56
2023-04-14T10:22:39.671Z,98872.94
2023-04-14T10:25:09.095Z,98862.78
2023-04-14T10:27:36.559Z,98857.88
2023-04-14T10:30:05.483Z,98843.88
2023-04-14T10:32:35.209Z,98845.94
2023-04-14T10:35:08.740Z,98850.03
2023-04-14T10:37:35.558Z,98847.41
2023-04-14T10:40:07.254Z,98846.66
2023-04-14T10:42:55.917Z,98849.19
2023-04-14T10:45:22.692Z,98840.72
2023-04-14T10:47:52.541Z,98838.94
2023-04-14T10:50:22.361Z,98848.03
2023-04-14T10:52:50.764Z,98838.59
2023-04-14T10:55:21.106Z,98835.63
2023-04-14T10:57:47.949Z,98830.66
2023-04-14T11:00:22.153Z,98831.78
2023-04-14T11:03:11.737Z,98823.25
2023-04-14T11:05:53.768Z,98822.69
2023-04-14T11:08:36.276Z,98821.91
2023-04-14T11:11:06.973Z,98819.38
2023-04-14T11:13:34.918Z,98815.06
2023-04-14T11:16:07.034Z,98808.91
2023-04-14T11:18:35.539Z,98808.03
2023-04-14T11:21:07.328Z,98808.47
2023-04-14T11:23:35.121Z,98799.81
2023-04-14T11:26:01.972Z,98808.28
2023-04-14T11:28:36.018Z,98806.44
2023-04-14T11:31:05.073Z,98811.06
2023-04-14T11:33:33.879Z,98804.22
2023-04-14T11:36:02.267Z,98796.91
2023-04-14T11:38:29.576Z,98799.63
2023-04-14T11:40:56.712Z,98792.31
2023-04-14T11:43:24.580Z,98788.16
2023-04-14T11:45:51.988Z,98793.31
2023-04-14T11:48:20.011Z,98787.41
2023-04-14T11:50:47.784Z,98784.16
2023-04-14T11:53:17.348Z,98782.38
2023-04-14T11:55:48.439Z,98788.25
2023-04-14T11:58:15.943Z,98785.28
2023-04-14T12:00:43.063Z,98783.84
2023-04-14T12:03:09.546Z,98782.50
2023-04-14T12:05:37.472Z,98778.19
2023-04-14T12:08:08.442Z,98776.53
2023-04-14T12:10:35.713Z,98779.22
2023-04-14T12:13:04.028Z,98773.22
2023-04-14T12:15:38.880Z,98768.91
2023-04-14T12:18:08.685Z,98774.72
2023-04-14T12:21:01.279Z,98766.78
2023-04-14T12:23:27.887Z,98763.09
2023-04-14T12:25:54.249Z,98767.91
2023-04-14T12:28:30.268Z,98767.41
2023-04-14T12:30:59.439Z,98767.75
2023-04-14T12:33:30.685Z,98759.94
2023-04-14T12:36:13.231Z,98753.63
2023-04-14T12:38:39.672Z,98754.47
2023-04-14T12:41:06.114Z,98743.66
2023-04-14T12:43:34.655Z,98737.69
2023-04-14T12:46:03.664Z,98735.69
2023-04-14T12:48:46.740Z,98742.66
2023-04-14T12:51:18.547Z,98732.88
2023-04-14T12:53:46.731Z,98734.38
2023-04-14T12:56:19.405Z,98730.38
2023-04-14T12:58:47.252Z,98735.34
2023-04-14T13:01:16.433Z,98731.38
2023-04-14T13:03:57.476Z,98722.00
2023-04-14T13:06:25.160Z,98717.78
2023-04-14T13:08:53.809Z,98713.91
2023-04-14T13:11:23.250Z,98707.09
2023-04-14T13:13:50.992Z,98704.44
2023-04-14T13:16:19.227Z,98710.44
2023-04-14T13:18:47.719Z,98704.75
2023-04-14T13:21:14.465Z,98703.44
2023-04-14T13:23:41.455Z,98702.97
2023-04-14T13:26:08.201Z,98709.13
2023-04-14T13:28:34.616Z,98712.75
2023-04-14T13:31:01.077Z,98708.81
2023-04-14T13:33:27.509Z,98708.63
2023-04-14T13:35:55.376Z,98702.78
2023-04-14T13:38:21.777Z,98696.13
2023-04-14T13:40:48.300Z,98705.09
2023-04-14T13:43:17.041Z,98697.44
2023-04-14T13:45:43.479Z,98701.44
2023-04-14T13:48:09.826Z,98699.13
2023-04-14T13:50:36.168Z,98704.09
2023-04-14T13:53:03.110Z,98696.47
2023-04-14T13:55:29.449Z,98687.19
2023-04-14T13:57:55.738Z,98693.00
2023-04-14T14:00:22.138Z,98686.19
2023-04-14T14:02:48.652Z,98690.84
2023-04-14T14:05:15.567Z,98676.41
2023-04-14T14:07:41.919Z,98680.56
2023-04-14T14:10:10.382Z,98674.59
2023-04-14T14:12:37.414Z,98681.06
2023-04-14T14:15:05.397Z,98674.06
2023-04-14T14:17:31.985Z,98673.06
2023-04-14T14:19:58.672Z,98669.91
2023-04-14T14:22:25.462Z,98664.72
2023-04-14T14:24:52.228Z,98663.28
2023-04-14T14:27:18.558Z,98658.28
2023-04-14T14:29:44.947Z,98654.97
2023-04-14T14:32:11.268Z,98651.66
2023-04-14T14:34:38.896Z,98650.66
2023-04-14T14:37:05.583Z,98637.22
2023-04-14T14:39:32.552Z,98648.00
2023-04-14T14:41:59.180Z,98648.66
2023-04-14T14:44:25.844Z,98645.69
2023-04-14T14:46:52.990Z,98646.50
2023-04-14T14:49:19.907Z,98631.06
2023-04-14T14:51:46.275Z,98627.44
2023-04-14T14:54:12.752Z,98630.91
2023-04-14T14:56:39.262Z,98645.53
2023-04-14T14:59:05.757Z,98629.25
2023-04-14T15:01:33.054Z,98638.06
2023-04-14T15:03:59.582Z,98637.72
2023-04-14T15:06:27.486Z,98628.41
2023-04-14T15:08:53.862Z,98629.09
2023-04-14T15:11:21.175Z,98633.41
2023-04-14T15:13:47.605Z,98628.09
2023-04-14T15:16:14.030Z,98635.38
2023-04-14T15:18:40.388Z,98620.25
2023-04-14T15:21:06.881Z,98629.59
2023-04-14T15:23:36.883Z,98623.41
2023-04-14T15:26:03.295Z,98619.94
2023-04-14T15:28:30.518Z,98624.41
2023-04-14T15:30:56.883Z,98630.56
2023-04-14T15:33:23.705Z,98624.41
2023-04-14T15:35:50.880Z,98630.72
2023-04-14T15:38:17.244Z,98625.75
2023-04-14T15:40:43.560Z,98624.28
2023-04-14T15:43:11.037Z,98614.78
2023-04-14T15:45:37.460Z,98623.28
2023-04-14T15:48:04.061Z,98624.09
2023-04-14T15:50:30.547Z,98614.78
2023-04-14T15:52:57.619Z,98618.78
2023-04-14T15:55:23.995Z,98623.75
2023-04-14T15:57:51.000Z,98616.13
2023-04-14T16:00:17.640Z,98622.41
2023-04-14T16:02:46.308Z,98620.75
2023-04-14T16:05:13.108Z,98618.44
2023-04-14T16:07:39.741Z,98615.13
2023-04-14T16:10:06.832Z,98625.59
2023-04-14T16:12:35.084Z,98633.56
2023-04-14T16:15:01.591Z,98623.09
2023-04-14T16:17:28.310Z,98615.13
2023-04-14T16:19:54.747Z,98617.78
2023-04-14T16:22:21.358Z,98622.25
2023-04-14T16:24:47.661Z,98624.75
2023-04-14T16:27:14.220Z,98627.06
2023-04-14T16:29:41.511Z,98621.94
2023-04-14T16:32:08.193Z,98622.59
2023-04-14T16:34:34.950Z,98614.78
2023-04-14T16:37:01.306Z,98629.41
2023-04-14T16:39:27.900Z,98623.41
2023-04-14T16:41:54.723Z,98620.44
2023-04-14T16:44:21.236Z,98620.44
2023-04-14T16:46:47.613Z,98620.75
2023-04-14T16:49:14.545Z,98615.78
2023-04-14T16:51:40.829Z,98622.41
2023-04-14T16:54:07.118Z,98624.59
2023-04-14T16:56:36.215Z,98618.59
2023-04-14T16:59:03.888Z,98621.09
2023-04-14T17:01:30.578Z,98611.63
2023-04-14T17:03:57.245Z,98609.81
2023-04-14T17:06:23.885Z,98621.09
2023-04-14T17:08:50.216Z,98612.63
2023-04-14T17:11:16.549Z,98613.28
2023-04-14T17:13:42.841Z,98616.63
2023-04-14T17:16:10.787Z,98625.41
2023-04-14T17:18:38.017Z,98620.44
2023-04-14T17:21:05.990Z,98633.72
2023-04-14T17:23:35.526Z,98628.22
2023-04-14T17:26:01.859Z,98628.06
2023-04-14T17:28:28.682Z,98630.53
2023-04-14T17:30:55.545Z,98627.06
2023-04-14T17:33:22.149Z,98627.03
2023-04-14T17:35:48.581Z,98625.06
2023-04-14T17:38:14.960Z,98635.00
2023-04-14T17:40:41.451Z,98636.00
2023-04-14T17:43:07.753Z,98646.09
2023-04-14T17:45:34.991Z,98645.28
2023-04-14T17:48:01.425Z,98642.13
2023-04-14T17:50:29.023Z,98639.94
2023-04-14T17:52:55.536Z,98641.41
2023-04-14T17:55:22.420Z,98656.50
2023-04-14T17:57:50.061Z,98644.19
2023-04-14T18:00:17.093Z,98644.53
2023-04-14T18:02:43.505Z,98657.44
2023-04-14T18:05:11.159Z,98645.97
2023-04-14T18:07:37.857Z,98651.25
2023-04-14T18:10:04.792Z,98653.97
2023-04-14T18:12:31.232Z,98651.31
2023-04-14T18:14:57.519Z,98659.59
2023-04-14T18:17:24.682Z,98654.84
2023-04-14T18:19:51.329Z,98654.47
2023-04-14T18:22:18.186Z,98657.47
2023-04-14T18:29:42.963Z,98656.75
2023-04-14T18:32:09.313Z,98657.31
2023-04-14T18:34:35.721Z,98662.81
2023-04-14T18:37:03.730Z,98656.94
2023-04-14T18:39:34.231Z,98668.13
2023-04-14T18:42:00.742Z,98668.50
2023-04-14T18:44:27.364Z,98662.66
2023-04-14T18:46:55.062Z,98666.38
2023-04-14T18:49:22.141Z,98662.06
2023-04-14T18:51:48.619Z,98668.88
2023-04-14T18:54:15.022Z,98664.00
2023-04-14T18:56:41.338Z,98666.59
2023-04-14T18:59:07.661Z,98679.84
2023-04-14T19:01:35.866Z,98673.94
2023-04-14T19:04:03.004Z,98674.13
2023-04-14T19:06:29.454Z,98682.75
2023-04-14T19:08:55.968Z,98683.94
2023-04-14T19:11:22.313Z,98677.75
2023-04-14T19:13:48.689Z,98683.97
2023-04-14T19:16:15.044Z,98689.41
2023-04-14T19:18:41.725Z,98689.53
2023-04-14T19:21:08.893Z,98683.84
2023-04-14T19:23:36.668Z,98696.66
2023-04-14T19:26:03.491Z,98699.75
2023-04-14T19:28:30.019Z,98692.31
2023-04-14T19:30:56.353Z,98686.16
2023-04-14T19:33:23.444Z,98698.38
2023-04-14T19:35:50.985Z,98697.59
2023-04-14T19:38:17.485Z,98691.41
2023-04-14T19:40:50.171Z,98690.81
2023-04-14T19:43:18.019Z,98701.81
2023-04-14T19:45:54.211Z,98695.13
2023-04-14T19:48:23.779Z,98701.00
2023-04-14T19:50:54.923Z,98702.66
2023-04-14T19:53:22.988Z,98703.38
2023-04-14T19:55:50.809Z,98707.69
2023-04-14T19:58:20.070Z,98714.06
2023-04-14T20:00:50.763Z,98710.47
2023-04-14T20:03:17.662Z,98709.06
2023-04-14T20:05:44.049Z,98694.34
2023-04-14T20:08:10.446Z,98701.84
2023-04-14T20:10:36.786Z,98697.97
2023-04-14T20:13:03.607Z,98703.94
2023-04-14T20:15:30.129Z,98705.47
2023-04-14T20:17:57.010Z,98712.41
2023-04-14T20:20:23.436Z,98710.47
2023-04-14T20:22:49.898Z,98713.03
2023-04-14T20:25:17.728Z,98705.22
2023-04-14T20:27:44.039Z,98713.88
2023-04-14T20:30:12.294Z,98708.72
2023-04-14T20:32:38.675Z,98715.59
2023-04-14T20:35:05.534Z,98713.91
2023-04-14T20:37:31.983Z,98704.09
2023-04-14T20:39:58.272Z,98720.75
2023-04-14T20:42:25.108Z,98708.72
2023-04-14T20:44:51.475Z,98726.28
2023-04-14T20:47:17.756Z,98716.16
2023-04-14T20:49:44.881Z,98730.16
2023-04-14T20:52:11.227Z,98726.03
2023-04-14T20:54:37.531Z,98718.78
2023-04-14T20:57:05.369Z,98720.16
2023-04-14T20:59:32.578Z,98722.47
2023-04-14T21:01:59.003Z,98732.94
2023-04-14T21:04:25.873Z,98731.84
2023-04-14T21:06:52.723Z,98726.72
2023-04-14T21:09:24.689Z,98716.88
2023-04-14T21:12:14.916Z,98714.06
2023-04-14T21:15:47.837Z,98715.53
2023-04-14T21:17:24.887Z,98715.00
2023-04-14T21:19:51.229Z,98711.72
2023-04-14T21:22:17.607Z,98728.50
2023-04-14T21:24:48.485Z,98714.69
2023-04-14T21:27:17.199Z,98718.94
2023-04-14T21:29:43.907Z,98715.09
2023-04-14T21:32:10.754Z,98718.91
2023-04-14T21:34:37.172Z,98733.63
2023-04-14T21:37:04.258Z,98719.78
2023-04-14T21:39:32.933Z,98724.53
2023-04-14T21:42:00.230Z,98725.09
2023-04-14T21:44:27.132Z,98724.75
2023-04-14T21:46:54.365Z,98723.03
2023-04-14T21:49:21.063Z,98729.94
2023-04-14T21:51:47.401Z,98728.66
2023-04-14T21:54:13.921Z,98729.31
2023-04-14T21:56:40.303Z,98727.44
2023-04-14T21:59:06.972Z,98730.97
2023-04-14T22:01:33.893Z,98732.34
2023-04-14T22:04:00.996Z,98732.56
2023-04-14T22:06:30.004Z,98743.75
2023-04-14T22:08:56.314Z,98734.25
2023-04-14T22:11:23.094Z,98731.97
2023-04-14T22:13:49.486Z,98734.84
2023-04-14T22:16:19.760Z,98731.13
2023-04-14T22:18:46.333Z,98736.16
2023-04-14T22:21:15.674Z,98741.06
2023-04-14T22:23:46.547Z,98748.13
2023-04-14T22:26:13.408Z,98747.75
2023-04-14T22:28:40.503Z,98750.03
2023-04-14T22:31:07.494Z,98743.25
2023-04-14T22:33:35.200Z,98754.34
2023-04-14T22:36:05.387Z,98747.84
2023-04-14T22:38:33.532Z,98747.97
2023-04-14T22:41:01.603Z,98751.19
2023-04-14T22:43:29.639Z,98762.94
2023-04-14T22:45:56.583Z,98763.19
2023-04-14T22:48:23.018Z,98757.94
2023-04-14T22:50:49.439Z,98760.19
2023-04-14T22:53:15.761Z,98752.44
2023-04-14T22:55:42.751Z,98751.94
2023-04-14T22:58:09.890Z,98749.44
2023-04-14T23:00:36.189Z,98747.41
2023-04-14T23:03:02.937Z,98743.13
2023-04-14T23:05:29.454Z,98739.03
2023-04-14T23:07:55.748Z,98752.44
2023-04-14T23:10:22.053Z,98738.78
2023-04-14T23:12:48.329Z,98753.84
2023-04-14T23:15:14.662Z,98742.38
2023-04-14T23:17:41.036Z,98752.38
2023-04-14T23:20:08.199Z,98757.63
2023-04-14T23:22:34.671Z,98750.38
2023-04-14T23:25:01.240Z,98755.22
2023-04-14T23:27:28.588Z,98753.75
2023-04-14T23:29:54.868Z,98764.38
2023-04-14T23:32:21.207Z,98765.94
2023-04-14T23:34:48.271Z,98766.59
2023-04-14T23:37:14.688Z,98763.25
2023-04-14T23:39:41.214Z,98780.72
2023-04-14T23:42:07.533Z,98767.09
2023-04-14T23:44:33.904Z,98782.28
2023-04-14T23:47:00.280Z,98770.88
2023-04-14T23:49:34.810Z,98768.19
2023-04-14T23:52:01.500Z,98767.31
2023-04-14T23:54:27.852Z,98767.38
2023-04-14T23:56:54.161Z,98770.56
2023-04-14T23:59:20.487Z,98764.66
